Terminal Aerodrome Forecast
Issued by NWS

Home | Current Version | Previous Version | Text Only | Print | Product List | Glossary On
Versions: 1 2 3 4 5 6 7 8 9 10 11 12 13 14 15 16 17 18 19 20 21 22 23 24 25 26
000
FTUS43 KDLH 282100 AAB
TAFBRD
TAF AMD
KBRD 282135Z 2822/2918 10005KT P6SM BKN016 OVC050
     FM290000 14007KT P6SM OVC030
     FM290700 16007KT 4SM -PLSN BR OVC018
     FM291500 18008KT 4SM BR OVC006=

USA.gov is the U.S. government's official web portal to all federal, state and local government web resources and services.